Blowing Sand Mountains, Nevada Weather observations

Data are for observation ending at time listed.
 Day   Time    Ave.   Ave.  Ave.  Vector   Max.   Stn.    Total    Solar   Ave.  
  of    of     Air    Rel.  Wind   Wind    Wind   Baro.  Precip.   Rad.    Soil  
Year   Day     Temp.  Hum.  Speed  Dir.    Gust   Pres.                    Temp. 
2016   (PST)    F      %     mph   deg.    mph     mb.     in.     W/m2     F   
------------------------------------------------------------------------------
 274    3:30   49.8    40    1.3   180      4.6    884.3     0.00       0     70.0
 274    3:40   47.8    42    0.0     0      0.0    884.5     0.00       0     70.0
 274    3:50   47.2    42    0.0     0      0.0    884.5     0.00       0     69.9
 274    4:00   47.8    43    0.9   111      3.7    884.5     0.00       0     69.9
 274    4:10   48.2    41    1.0    71      3.5    884.5     0.00       0     69.9
 274    4:20   47.7    43    0.0     0      0.0    884.5     0.00       0     69.8
 274    4:30   48.3    44    0.5   106      2.6    884.5     0.00       0     69.8
 274    4:40   47.2    43    0.0     0      0.0    884.4     0.00       0     69.7
 274    4:50   46.5    44    0.0     0      0.0    884.4     0.00       0     69.7
 274    5:00   47.3    44    0.1   290      4.4    884.5     0.00       0     69.7
 274    5:10   48.1    42    3.0   282      7.5    884.6     0.00       0     69.6
 274    5:20   47.0    42    3.6   308      5.0    884.6     0.00       0     69.6
 274    5:30   47.4    42    1.1   285      3.2    884.7     0.00       0     69.5
 274    5:40   46.5    42    1.3    73      4.9    884.8     0.00       1     69.5
 274    5:50   45.8    45    2.4    89      3.6    884.8     0.00       2     69.5
 274    6:00   46.6    43    0.7   134      3.0    884.9     0.00       6     69.4
 274    6:10   44.4    44    2.9   177      4.6    884.9     0.00      13     69.4
 274    6:20   44.3    46    2.4   179      4.7    884.9     0.00      37     69.3
 274    6:30   46.0    42    0.4    41      2.8    885.0     0.00      70     69.2
 274    6:40   47.0    41    0.0     0      0.0    885.1     0.00     108     69.2
 274    6:50   49.6    40    0.0     0      0.0    885.0     0.00     143     69.1
 274    7:00   52.2    38    1.3    63      3.4    884.9     0.00     178     69.0
 274    7:10   54.8    36    3.1    74      5.0    884.9     0.00     213     69.0
 274    7:20   57.4    34    0.4    32      3.7    884.9     0.00     250     68.9
 274    7:30   59.3    32    0.8   287      4.3    884.9     0.00     285     68.9
 274    7:40   58.5    32    1.2   317      3.5    884.9     0.00     322     68.8
 274    7:50   58.1    32    2.4   286      3.9    884.8     0.00     356     68.8
 274    8:00   58.6    32    3.0   262      4.2    884.8     0.00     391     68.7
 274    8:10   60.5    31    2.1   259      3.5    884.8     0.00     426     68.6
 274    8:20   62.5    29    0.1   264      2.0    884.8     0.00     462     68.6
 274    8:30   65.0    28    0.9   296      2.6    884.7     0.00     496     68.5
 274    8:40   66.3    27    1.5   313      3.4    884.6     0.00     529     68.5
 274    8:50   68.4    26    0.8   297      4.4    884.6     0.00     559     68.5
 274    9:00   70.3    25    1.7   309      4.0    884.5     0.00     590     68.4
 274    9:10   72.6    23    0.4   293      2.5    884.4     0.00     620     68.4
 274    9:20   73.7    22    0.2   339      3.4    884.2     0.00     648     68.3
 274    9:30   74.9    21    0.4   332      4.3    884.1     0.00     675     68.3
 274    9:40   75.5    21    1.1   286      4.2    883.9     0.00     699     68.2
 274    9:50   76.0    20    0.5   302      4.0    883.7     0.00     723     68.2
 274   10:00   76.7    20    3.0   321      5.8    883.5     0.00     743     68.1
 274   10:10   77.1    20    2.7   350     10.2    883.4     0.00     764     68.1
 274   10:20   79.2    17    4.8    91     12.4    883.2     0.00     780     68.0
 274   10:30   80.6    16    1.1   282      4.2    883.1     0.00     794     68.0
 274   10:40   80.5    15    2.3   119      8.3    882.9     0.00     809     67.9
 274   10:50   81.1    14    5.9   182     11.5    882.7     0.00     825     67.9
 274   11:00   82.1    13    7.0   206     16.7    882.6     0.00     836     67.9
 274   11:10   82.5    12    9.0   181     17.2    882.4     0.00     847     67.9
 274   11:20   82.6    12   11.3   172     17.8    882.3     0.00     854     67.9
 274   11:30   83.0    12    8.2   169     13.4    882.1     0.00     861     67.9
 274   11:40   83.4    12    7.0   162     17.5    881.9     0.00     859     67.8
 274   11:50   83.5    12    8.2   164     15.2    881.6     0.00     860     67.8
 274   12:00   84.4    10    9.1   160     20.2    881.4     0.00     858     67.8
 274   12:10   84.6    10   11.0   168     18.3    881.2     0.00     857     67.8
 274   12:20   84.7    10   10.2   209     17.7    881.0     0.00     858     67.8
 274   12:30   84.9     9   10.2   193     19.2    880.7     0.00     865     67.8
 274   12:40   85.4     9   11.4   165     21.8    880.4     0.00     876     67.8
 274   12:50   85.8     9   11.9   156     22.3    880.2     0.00     819     67.9
 274   13:00   86.4     9   13.8   195     25.1    879.9     0.00     783     67.9
 274   13:10   85.6     9   12.2   195     21.4    879.8     0.00     406     67.9
 274   13:20   84.3     9   11.2   234     18.7    879.7     0.00     306     67.9
 274   13:30   83.8     9    9.0   247     14.3    879.7     0.00     479     68.0
 274   13:40   84.1     9    9.2   226     18.0    879.5     0.00     270     68.0
 274   13:50   83.9     9    7.6   227     13.2    879.4     0.00     269     68.0
 274   14:00   84.2     9    4.1   198     11.8    879.3     0.00     427     68.1
 274   14:10   85.3     9    9.1   232     14.4    879.2     0.00     367     68.1
 274   14:20   84.0     9    8.8   250     17.3    879.1     0.00     265     68.1
 274   14:30   84.1     9   12.3   248     21.5    879.0     0.00     487     68.2
 274   14:40   85.9     8   13.0   248     24.5    878.8     0.00     737     68.2
 274   14:50   86.0     8   15.6   254     24.7    878.8     0.00     660     68.3
 274   15:00   86.1     8   15.4   252     22.7    878.8     0.00     580     68.3
 274   15:10   85.6     8   18.3   238     25.6    878.7     0.00     558     68.4
 274   15:20   85.1     9   14.8   250     22.6    878.7     0.00     533     68.4
 274   15:30   84.7     9   15.3   252     24.0    878.6     0.00     476     68.5
 274   15:40   84.2     9   15.8   255     22.2    878.5     0.00     420     68.5
 274   15:50   83.7     9   18.9   253     24.5    878.3     0.00     377     68.6
 274   16:00   83.1    10   18.1   254     28.4    878.2     0.00     340     68.6
 274   16:10   82.8    10   19.8   255     26.0    878.1     0.00     303     68.7
 274   16:20   82.3    10   17.0   260     24.5    878.2     0.00     268     68.8
 274   16:30   82.0    10   18.6   250     26.6    878.2     0.00     232     68.8
 274   16:40   81.2    10   19.1   255     27.5    878.2     0.00     197     68.9
 274   16:50   80.7    10   16.5   255     24.5    878.2     0.00     161     68.9
 274   17:00   80.1    10   17.7   253     24.5    878.2     0.00     124     69.0
 274   17:10   79.4    11   19.7   252     27.4    878.1     0.00      84     69.0
 274   17:20   78.6    11   16.7   249     24.5    878.2     0.00      49     69.1
 274   17:30   77.9    11   17.2   249     26.5    878.2     0.00      19     69.1
 274   17:40   77.1    12   16.2   250     22.4    878.2     0.00       7     69.2
 274   17:50   76.4    12   16.9   253     29.4    878.2     0.00       2     69.2
 274   18:00   75.7    13   15.7   254     23.2    878.2     0.00       1     69.3
 274   18:10   75.4    13   16.7   250     25.2    878.2     0.00       0     69.3
 274   18:20   75.0    13   16.6   247     24.7    878.3     0.00       0     69.4
 274   18:30   74.5    14   15.2   252     22.1    878.3     0.00       0     69.4
 274   18:40   74.3    14   17.5   250     25.8    878.4     0.00       0     69.5
 274   18:50   73.9    14   15.0   252     23.6    878.5     0.00       0     69.5
 274   19:00   73.2    14   12.6   248     17.5    878.6     0.00       0     69.6
 274   19:10   72.8    15   13.3   249     21.7    878.6     0.00       0     69.6
 274   19:20   72.3    15   11.3   253     18.5    878.7     0.00       0     69.6
 274   19:30   72.1    15   10.4   251     15.9    878.7     0.00       0     69.7
 274   19:40   72.1    15    9.1   258     15.8    878.7     0.00       0     69.7
 274   19:50   71.5    15    4.3   273      9.1    878.9     0.00       0     69.7
 274   20:00   71.0    15    2.0   280      5.5    879.0     0.00       0     69.8
 274   20:10   71.6    15    4.2    22      7.9    879.0     0.00       0     69.8
 274   20:20   70.5    15    2.9    52      9.6    879.1     0.00       0     69.8
 274   20:30   70.9    15    5.2    19     11.6    879.2     0.00       0     69.8
 274   20:40   71.9    15    6.0    22     13.1    879.3     0.00       0     69.9
 274   20:50   72.2    14    4.2   328     17.7    879.4     0.00       0     69.9
 274   21:00   71.5    15    4.0   325      5.8    879.4     0.00       0     69.9
 274   21:10   69.9    16    5.4   326      7.6    879.4     0.00       0     69.9
 274   21:20   68.5    17    2.8   343      8.5    879.5     0.00       0     69.9
 274   21:30   67.6    18    5.7   297      8.3    879.6     0.00       0     70.0
 274   21:40   67.1    18    3.7   258      7.5    879.7     0.00       0     69.9
 274   21:50   66.0    18    3.6   116      6.1    879.9     0.00       0     70.0
 274   22:00   66.1    18    4.2   139      7.2    879.9     0.00       0     70.0
 274   22:10   61.9    20    6.6   139      9.1    879.9     0.00       0     70.0
 274   22:20   60.4    22    4.4   130      7.2    879.9     0.00       0     70.0
 274   22:30   62.0    22    5.2    66      6.9    879.8     0.00       0     70.0
 274   22:40   63.9    21    4.9    74      8.3    879.8     0.00       0     70.0
 274   22:50   63.4    20    3.2    70      7.5    879.9     0.00       0     70.0
 274   23:00   58.6    22    5.2   184      6.8    880.0     0.00       0     70.0
 274   23:10   55.4    24    2.6   171      4.4    880.1     0.00       0     70.0
 274   23:20   54.0    26    2.0    97      4.4    880.1     0.00       0     70.0
 274   23:30   53.7    26    3.1    24      5.9    880.1     0.00       0     70.0
 274   23:40   52.9    26    0.8   185      6.0    880.2     0.00       0     70.0
 274   23:50   52.2    27    1.7   136      4.7    880.2     0.00       0     70.0
 275    0:00   51.5    28    1.1   106      6.2    880.2     0.00       0     69.9
 275    0:10   51.9    28    3.7    81      6.4    880.2     0.00       0     69.9
 275    0:20   55.0    27    3.7   122      7.7    880.2     0.00       0     69.9
 275    0:30   57.0    26    2.0   111      4.8    880.2     0.00       0     69.9
 275    0:40   56.5    26    3.3    60      4.8    880.2     0.00       0     69.9
 275    0:50   54.2    27    1.6   130      6.7    880.2     0.00       0     69.8
 275    1:00   52.6    28    2.8   174      6.3    880.2     0.00       0     69.8
 275    1:10   51.3    29    1.2   295      5.5    880.3     0.00       0     69.8
 275    1:20   51.4    29    0.0   234      1.5    880.3     0.00       0     69.8
 275    1:30   51.4    29    2.4   160      5.7    880.4     0.00       0     69.8
 275    1:40   50.4    30    4.0    91      5.7    880.4     0.00       0     69.7
 275    1:50   49.4    30    1.0    94      3.7    880.4     0.00       0     69.7
 275    2:00   49.0    31    2.5   102      5.8    880.3     0.00       0     69.7
 275    2:10   49.1    31    1.2   140      5.9    880.3     0.00       0     69.6
 275    2:20   48.3    32    0.9   214      6.9    880.3     0.00       0     69.6
 275    2:30   47.6    32    0.0     0      0.0    880.3     0.00       0     69.6
 275    2:40   46.1    32    0.0     0      0.0    880.3     0.00       0     69.5
 275    2:50   45.2    34    0.0     0      0.0    880.3     0.00       0     69.5
 275    3:00   45.5    34    1.0   286      6.3    880.3     0.00       0     69.5
 275    3:10   46.2    32    2.3   284      3.4    880.3     0.00       0     69.4
 275    3:20   44.9    35    2.6   138      7.5    880.5     0.00       0     69.4

Return to Blowing Sand Mountains graphs page.


Western Regional Climate Center,wrcc@dri.edu